Time;durP1;ratioP1;P1;durP2;ratioP2;P2;SDS_P1;SDS_P2;PMS_P1;PMS_P2;Temp;Humidity;BMP_temperature;BMP_pressure;BME280_temperature;BME280_humidity;BME280_pressure;Samples;Min_cycle;Max_cycle;Signal;HPM_P1;HPM_P2
2020/12/23 00:00:09;;;;;;;1.00;1.00;;;12.30;99.90;;;;;;5097972;28;20788;-86
2020/12/23 00:02:35;;;;;;;1.40;0.97;;;12.20;99.90;;;;;;5095546;28;20174;-85
2020/12/23 00:05:03;;;;;;;1.20;1.10;;;12.30;99.90;;;;;;5095224;28;20412;-86
2020/12/23 00:07:33;;;;;;;0.77;0.77;;;12.40;99.90;;;;;;5095067;28;20548;-85
2020/12/23 00:09:58;;;;;;;0.70;0.70;;;12.30;99.90;;;;;;5095256;28;20452;-85
2020/12/23 00:12:24;;;;;;;0.80;0.80;;;12.40;99.90;;;;;;5096071;28;20472;-86
2020/12/23 00:14:50;;;;;;;0.73;0.73;;;12.40;99.90;;;;;;5097454;28;20253;-85
2020/12/23 00:17:19;;;;;;;0.77;0.77;;;12.40;99.90;;;;;;5094598;28;20416;-85
2020/12/23 00:19:46;;;;;;;0.73;0.73;;;12.50;99.90;;;;;;5093214;28;20174;-85
2020/12/23 00:22:11;;;;;;;1.00;1.00;;;12.60;99.90;;;;;;5094610;28;20409;-85
2020/12/23 00:24:37;;;;;;;0.80;0.80;;;12.60;99.90;;;;;;5094785;28;20469;-86
2020/12/23 00:27:02;;;;;;;0.90;0.83;;;12.70;99.90;;;;;;5094575;28;20641;-84
2020/12/23 00:29:28;;;;;;;0.97;0.97;;;12.80;99.90;;;;;;5094689;28;20178;-86
2020/12/23 00:31:53;;;;;;;1.03;0.80;;;12.80;99.90;;;;;;5093257;28;20504;-86
2020/12/23 00:34:20;;;;;;;0.80;0.80;;;12.80;99.90;;;;;;5094149;28;20569;-85
2020/12/23 00:36:51;;;;;;;1.13;0.70;;;12.90;99.90;;;;;;5094246;28;20185;-84
2020/12/23 00:39:17;;;;;;;2.83;0.67;;;12.90;99.90;;;;;;5093202;28;20946;-86
2020/12/23 00:41:44;;;;;;;0.80;0.80;;;13.00;99.90;;;;;;5094255;28;20503;-85
2020/12/23 00:44:09;;;;;;;1.20;1.10;;;13.00;99.90;;;;;;5094572;28;20206;-85
2020/12/23 00:46:35;;;;;;;1.00;0.90;;;13.00;99.90;;;;;;5094335;28;20459;-85
2020/12/23 00:49:01;;;;;;;0.87;0.87;;;13.00;99.90;;;;;;5092958;28;20175;-84
2020/12/23 00:51:26;;;;;;;0.77;0.77;;;13.00;99.90;;;;;;5094496;28;20531;-84
2020/12/23 00:53:52;;;;;;;0.83;0.83;;;13.00;99.90;;;;;;5094529;28;20198;-85
2020/12/23 00:56:19;;;;;;;0.57;0.57;;;13.10;99.90;;;;;;5094613;28;20194;-84
2020/12/23 00:58:44;;;;;;;0.70;0.70;;;13.10;99.90;;;;;;5094233;28;20270;-85
2020/12/23 01:01:10;;;;;;;0.90;0.90;;;13.10;99.90;;;;;;5094093;28;20441;-85
2020/12/23 01:03:35;;;;;;;1.50;1.13;;;13.10;99.90;;;;;;5094173;28;20174;-85
2020/12/23 01:06:06;;;;;;;0.60;0.60;;;13.10;99.90;;;;;;5092919;28;20661;-86
2020/12/23 01:08:31;;;;;;;0.83;0.83;;;13.10;99.90;;;;;;5097510;28;20167;-85
2020/12/23 01:10:57;;;;;;;1.00;0.67;;;13.10;99.90;;;;;;5098072;28;20413;-85
2020/12/23 01:13:22;;;;;;;1.17;1.07;;;13.00;99.90;;;;;;5096130;28;20321;-86
2020/12/23 01:15:48;;;;;;;0.70;0.70;;;13.10;99.90;;;;;;5096582;28;20523;-84
2020/12/23 01:18:13;;;;;;;2.13;0.80;;;13.20;99.90;;;;;;5096668;28;20220;-86
2020/12/23 01:20:40;;;;;;;0.93;0.80;;;13.10;99.90;;;;;;5101610;28;20178;-84
2020/12/23 01:23:06;;;;;;;0.73;0.73;;;13.20;99.90;;;;;;5097618;28;20201;-85
2020/12/23 01:25:31;;;;;;;0.60;0.60;;;13.30;99.90;;;;;;5098301;28;20408;-85
2020/12/23 01:27:57;;;;;;;0.50;0.50;;;13.30;99.90;;;;;;5097387;28;20174;-84
2020/12/23 01:30:23;;;;;;;0.80;0.80;;;13.20;99.90;;;;;;5099126;28;20652;-87
2020/12/23 01:32:48;;;;;;;1.33;0.80;;;13.10;99.90;;;;;;5096575;28;20175;-85
2020/12/23 01:35:14;;;;;;;0.63;0.63;;;13.10;99.90;;;;;;5097668;28;20217;-85
2020/12/23 01:37:40;;;;;;;0.80;0.80;;;13.20;99.90;;;;;;5096423;28;20175;-86
2020/12/23 01:40:05;;;;;;;0.90;0.90;;;13.20;99.90;;;;;;5095858;28;20177;-86
2020/12/23 01:42:33;;;;;;;1.00;0.90;;;13.20;99.90;;;;;;5096304;28;20638;-86
2020/12/23 01:44:59;;;;;;;0.97;0.77;;;13.30;99.90;;;;;;5097884;28;20171;-85
2020/12/23 01:47:25;;;;;;;0.77;0.77;;;13.30;99.90;;;;;;5096428;28;20424;-84
2020/12/23 01:49:51;;;;;;;0.93;0.93;;;13.30;99.90;;;;;;5097198;28;20417;-84
2020/12/23 01:52:18;;;;;;;0.77;0.70;;;13.30;99.90;;;;;;5097159;28;20540;-85
2020/12/23 01:54:43;;;;;;;0.80;0.70;;;13.30;99.90;;;;;;5097126;28;20213;-86
2020/12/23 01:57:13;;;;;;;1.23;0.90;;;13.30;99.90;;;;;;5097204;28;20401;-86
2020/12/23 01:59:38;;;;;;;1.60;0.80;;;13.30;99.90;;;;;;5096974;28;20431;-85
2020/12/23 02:02:28;;;;;;;0.70;0.70;;;13.30;99.90;;;;;;5097062;28;20412;-86
2020/12/23 02:04:54;;;;;;;0.70;0.70;;;13.30;99.90;;;;;;5098141;28;20213;-85
2020/12/23 02:07:22;;;;;;;1.73;0.80;;;13.30;99.90;;;;;;5096979;28;20415;-86
2020/12/23 02:09:50;;;;;;;1.00;1.00;;;13.30;99.90;;;;;;5097103;28;20412;-84
2020/12/23 02:12:15;;;;;;;1.50;1.40;;;13.30;99.90;;;;;;5095365;28;20483;-85
2020/12/23 02:14:41;;;;;;;1.10;1.00;;;13.30;99.90;;;;;;5095945;28;20975;-86
2020/12/23 02:17:07;;;;;;;0.63;0.63;;;13.30;99.90;;;;;;5095665;28;20166;-85
2020/12/23 02:19:33;;;;;;;0.73;0.73;;;13.30;99.90;;;;;;5095071;28;20167;-85
2020/12/23 02:22:00;;;;;;;0.90;0.90;;;13.20;99.90;;;;;;5096026;28;20520;-86
2020/12/23 02:24:26;;;;;;;1.77;0.70;;;13.20;99.90;;;;;;5096150;28;20628;-84
2020/12/23 02:26:52;;;;;;;2.00;1.07;;;13.20;99.90;;;;;;5096126;28;20413;-85
2020/12/23 02:29:17;;;;;;;2.50;2.30;;;13.20;99.90;;;;;;5096396;28;20420;-85
2020/12/23 02:31:43;;;;;;;0.90;0.90;;;13.10;99.90;;;;;;5096302;28;20171;-86
2020/12/23 02:34:09;;;;;;;0.87;0.80;;;13.10;99.90;;;;;;5094525;28;20468;-85
2020/12/23 02:36:34;;;;;;;1.03;0.80;;;13.10;99.90;;;;;;5095941;28;20170;-85
2020/12/23 02:39:00;;;;;;;0.80;0.80;;;13.10;99.90;;;;;;5095211;28;20181;-85
2020/12/23 02:41:26;;;;;;;0.90;0.90;;;13.00;99.90;;;;;;5098579;28;20174;-85
2020/12/23 02:43:51;;;;;;;1.63;1.53;;;13.00;99.90;;;;;;5098291;28;20163;-84
2020/12/23 02:46:19;;;;;;;1.80;1.03;;;13.00;99.90;;;;;;5096709;28;20665;-86
2020/12/23 02:48:44;;;;;;;0.60;0.60;;;13.00;99.90;;;;;;5100710;28;20171;-85
2020/12/23 02:51:10;;;;;;;0.60;0.60;;;13.00;99.90;;;;;;5094579;28;20980;-86
2020/12/23 02:53:35;;;;;;;1.10;1.07;;;13.00;99.90;;;;;;5095339;28;20630;-84
2020/12/23 02:56:04;;;;;;;1.17;0.93;;;13.10;99.90;;;;;;5095187;28;20650;-85
2020/12/23 02:58:29;;;;;;;1.10;0.93;;;13.10;99.90;;;;;;5094039;28;20171;-86
2020/12/23 03:00:55;;;;;;;0.90;0.70;;;13.10;99.90;;;;;;5095152;28;20504;-85
2020/12/23 03:03:21;;;;;;;0.80;0.60;;;13.10;99.90;;;;;;5093948;28;20206;-85
2020/12/23 03:05:46;;;;;;;0.87;0.70;;;13.10;99.90;;;;;;5095197;28;20170;-85
2020/12/23 03:08:12;;;;;;;0.70;0.70;;;13.10;99.90;;;;;;5095165;28;20257;-84
2020/12/23 03:10:38;;;;;;;1.00;0.90;;;13.10;99.90;;;;;;5095144;28;20174;-85
2020/12/23 03:13:03;;;;;;;0.73;0.70;;;13.10;99.90;;;;;;5095841;28;20279;-85
2020/12/23 03:15:29;;;;;;;0.43;0.43;;;13.10;99.90;;;;;;5094175;28;20681;-84
2020/12/23 03:17:54;;;;;;;0.63;0.63;;;13.10;99.90;;;;;;5096860;28;20171;-85
2020/12/23 03:20:20;;;;;;;0.60;0.60;;;13.10;99.90;;;;;;5094293;28;20678;-85
2020/12/23 03:22:46;;;;;;;0.60;0.60;;;13.10;99.90;;;;;;5095779;28;20568;-85
2020/12/23 03:25:11;;;;;;;0.50;0.50;;;13.10;99.90;;;;;;5096800;28;20166;-85
2020/12/23 03:27:38;;;;;;;0.83;0.70;;;13.10;99.90;;;;;;5095550;28;20198;-86
2020/12/23 03:30:04;;;;;;;1.00;0.67;;;13.20;99.90;;;;;;5097917;28;20159;-86
2020/12/23 03:32:29;;;;;;;0.50;0.50;;;13.20;99.90;;;;;;5095061;28;20417;-85
2020/12/23 03:34:55;;;;;;;0.60;0.60;;;13.10;99.90;;;;;;5094933;28;20618;-87
2020/12/23 03:37:20;;;;;;;2.33;0.80;;;13.20;99.90;;;;;;5093243;28;20275;-86
2020/12/23 03:39:46;;;;;;;0.80;0.80;;;13.20;99.90;;;;;;5094123;28;20250;-87
2020/12/23 03:42:11;;;;;;;0.70;0.70;;;13.20;99.90;;;;;;5094308;28;20163;-85
2020/12/23 03:44:37;;;;;;;0.60;0.60;;;13.20;99.90;;;;;;5094752;28;20178;-85
2020/12/23 03:47:03;;;;;;;0.80;0.80;;;13.20;99.90;;;;;;5096677;28;20166;-85
2020/12/23 03:49:28;;;;;;;0.50;0.50;;;13.20;99.90;;;;;;5095739;28;20186;-84
2020/12/23 03:51:54;;;;;;;1.17;0.50;;;13.20;99.90;;;;;;5094261;28;20216;-86
2020/12/23 03:54:19;;;;;;;1.17;0.50;;;13.20;99.90;;;;;;5092867;28;20225;-85
2020/12/23 03:56:48;;;;;;;1.00;0.60;;;13.30;99.90;;;;;;5093088;28;20178;-85
2020/12/23 03:59:13;;;;;;;0.53;0.53;;;13.30;99.90;;;;;;5093180;28;20209;-87
2020/12/23 04:01:40;;;;;;;0.90;0.60;;;13.20;99.90;;;;;;5093066;28;20417;-86
2020/12/23 04:04:05;;;;;;;1.37;1.27;;;13.20;99.90;;;;;;5092722;28;20171;-86
2020/12/23 04:06:31;;;;;;;0.77;0.77;;;13.20;99.90;;;;;;5092798;28;20474;-85
2020/12/23 04:08:56;;;;;;;0.70;0.70;;;13.30;99.90;;;;;;5094082;28;20173;-85
2020/12/23 04:11:22;;;;;;;0.77;0.77;;;13.30;99.90;;;;;;5093924;28;20200;-84
2020/12/23 04:13:47;;;;;;;0.53;0.53;;;13.30;99.90;;;;;;5093953;28;20230;-85
2020/12/23 04:16:13;;;;;;;0.60;0.60;;;13.20;99.90;;;;;;5093729;28;20264;-85
2020/12/23 04:18:39;;;;;;;0.47;0.47;;;13.40;99.90;;;;;;5092685;28;20186;-84
2020/12/23 04:21:04;;;;;;;0.50;0.50;;;13.30;99.90;;;;;;5093010;28;20178;-85
2020/12/23 04:23:38;;;;;;;0.60;0.60;;;13.30;99.90;;;;;;5093889;28;20224;-85
2020/12/23 04:26:04;;;;;;;1.23;0.80;;;13.30;99.90;;;;;;5093576;28;20170;-85
2020/12/23 04:28:30;;;;;;;0.70;0.70;;;13.30;99.90;;;;;;5093904;28;20485;-82
2020/12/23 04:30:55;;;;;;;1.27;0.77;;;13.30;99.90;;;;;;5094147;28;20178;-85
2020/12/23 04:33:21;;;;;;;0.80;0.80;;;13.20;99.90;;;;;;5093818;28;20177;-85
2020/12/23 04:35:46;;;;;;;0.67;0.67;;;13.30;99.90;;;;;;5093177;28;20204;-85
2020/12/23 04:38:12;;;;;;;0.77;0.70;;;13.20;99.90;;;;;;5093805;28;20219;-86
2020/12/23 04:40:39;;;;;;;1.47;0.83;;;13.20;99.90;;;;;;5092442;28;20174;-85
2020/12/23 04:43:05;;;;;;;0.70;0.70;;;13.30;99.90;;;;;;5096591;28;20245;-86
2020/12/23 04:45:31;;;;;;;0.90;0.90;;;13.20;99.90;;;;;;5097850;28;20935;-85
2020/12/23 04:47:57;;;;;;;0.80;0.80;;;13.20;99.90;;;;;;5097623;28;20408;-85
2020/12/23 04:50:29;;;;;;;1.57;0.93;;;13.10;99.90;;;;;;5096466;28;20178;-84
2020/12/23 04:52:54;;;;;;;1.57;1.10;;;13.10;99.90;;;;;;5097938;28;20436;-85
2020/12/23 04:55:20;;;;;;;1.20;1.10;;;13.00;99.90;;;;;;5097489;28;20510;-84
2020/12/23 04:57:48;;;;;;;1.07;0.97;;;13.00;99.90;;;;;;5097491;28;20174;-85
2020/12/23 05:00:13;;;;;;;0.80;0.80;;;13.00;99.90;;;;;;5097442;28;20456;-83
2020/12/23 05:02:39;;;;;;;0.77;0.77;;;12.90;99.90;;;;;;5097950;28;20459;-85
2020/12/23 05:05:05;;;;;;;0.70;0.70;;;12.90;99.90;;;;;;5097396;28;20183;-84
2020/12/23 05:07:30;;;;;;;0.97;0.77;;;12.90;99.90;;;;;;5098708;28;20186;-83
2020/12/23 05:09:56;;;;;;;0.80;0.80;;;12.90;99.90;;;;;;5098266;28;20174;-85
2020/12/23 05:12:21;;;;;;;0.77;0.50;;;12.90;99.90;;;;;;5095895;28;20708;-83
2020/12/23 05:14:47;;;;;;;0.80;0.80;;;12.90;99.90;;;;;;5097271;28;20287;-86
2020/12/23 05:17:16;;;;;;;1.47;0.80;;;12.90;99.90;;;;;;5095962;28;20193;-85
2020/12/23 05:19:41;;;;;;;0.90;0.90;;;12.80;99.90;;;;;;5096356;28;20439;-85
2020/12/23 05:22:08;;;;;;;0.93;0.93;;;12.80;99.90;;;;;;5099622;28;20412;-85
2020/12/23 05:24:38;;;;;;;0.90;0.90;;;12.80;99.90;;;;;;5096847;28;20174;-86
2020/12/23 05:27:05;;;;;;;0.70;0.67;;;12.80;99.90;;;;;;5096994;28;20428;-85
2020/12/23 05:29:31;;;;;;;0.93;0.53;;;12.80;99.90;;;;;;5097036;28;20432;-85
2020/12/23 05:31:56;;;;;;;1.30;1.20;;;12.80;99.90;;;;;;5097352;28;20420;-85
2020/12/23 05:34:22;;;;;;;1.37;0.90;;;12.80;99.90;;;;;;5095665;28;20214;-87
2020/12/23 05:36:51;;;;;;;0.70;0.70;;;12.80;99.90;;;;;;5095792;28;20234;-85
2020/12/23 05:39:16;;;;;;;1.00;0.90;;;12.80;99.90;;;;;;5095678;28;20597;-85
2020/12/23 05:41:43;;;;;;;2.30;1.00;;;12.70;99.90;;;;;;5094980;28;20444;-85
2020/12/23 05:44:17;;;;;;;3.03;0.90;;;12.70;99.90;;;;;;5095399;28;20640;-85
2020/12/23 05:46:45;;;;;;;0.93;0.93;;;12.70;99.90;;;;;;5078427;28;20495;-85
2020/12/23 05:49:11;;;;;;;0.90;0.90;;;12.70;99.90;;;;;;5096634;28;20409;-87
2020/12/23 05:51:37;;;;;;;0.57;0.57;;;12.60;99.90;;;;;;5094947;28;20409;-84
2020/12/23 05:54:05;;;;;;;1.17;0.73;;;12.60;99.90;;;;;;5094389;28;20478;-85
2020/12/23 05:56:39;;;;;;;0.77;0.77;;;12.60;99.90;;;;;;5095731;28;20417;-85
2020/12/23 05:59:05;;;;;;;1.70;0.90;;;12.60;99.90;;;;;;5095154;28;20424;-85
2020/12/23 06:01:36;;;;;;;1.90;1.30;;;12.60;99.90;;;;;;5094911;28;20424;-85
2020/12/23 06:04:12;;;;;;;0.77;0.77;;;12.50;99.90;;;;;;5096530;28;20174;-86
2020/12/23 06:06:43;;;;;;;1.37;1.27;;;12.50;99.90;;;;;;5094923;28;20420;-85
2020/12/23 06:09:11;;;;;;;0.97;0.97;;;12.50;99.90;;;;;;5097647;28;20453;-85
2020/12/23 06:11:54;;;;;;;1.07;1.00;;;12.50;99.90;;;;;;5105708;28;20414;-85
2020/12/23 06:14:25;;;;;;;0.70;0.70;;;12.50;99.90;;;;;;5113949;28;21015;-83
2020/12/23 06:17:04;;;;;;;0.80;0.80;;;12.40;99.90;;;;;;5113917;28;20423;-83
2020/12/23 06:19:38;;;;;;;1.10;1.00;;;12.50;99.90;;;;;;5114264;28;20689;-85
2020/12/23 06:22:09;;;;;;;3.60;1.70;;;12.50;99.90;;;;;;5117031;27;20428;-85
2020/12/23 06:24:36;;;;;;;3.97;1.27;;;12.50;99.90;;;;;;5115008;27;20903;-84
2020/12/23 06:27:07;;;;;;;1.63;1.30;;;12.50;99.90;;;;;;5117260;28;20862;-83
2020/12/23 06:29:36;;;;;;;1.17;1.07;;;12.50;99.90;;;;;;5124222;27;20770;-85
2020/12/23 06:32:04;;;;;;;0.70;0.70;;;12.50;99.90;;;;;;5136615;27;20414;-84
2020/12/23 06:34:32;;;;;;;1.13;1.13;;;12.50;99.90;;;;;;5136189;27;20569;-83
2020/12/23 06:36:59;;;;;;;0.80;0.80;;;12.50;99.90;;;;;;5135616;27;20464;-87
2020/12/23 06:39:24;;;;;;;2.40;1.20;;;12.40;99.90;;;;;;5135557;27;20510;-83
2020/12/23 06:41:52;;;;;;;0.83;0.83;;;12.40;99.90;;;;;;5135383;27;20399;-80
2020/12/23 06:44:18;;;;;;;1.07;1.07;;;12.50;99.90;;;;;;5136482;27;20181;-88
2020/12/23 06:46:59;;;;;;;1.10;0.83;;;12.50;99.90;;;;;;5133757;27;20803;-85
2020/12/23 06:49:35;;;;;;;1.03;0.87;;;12.40;99.90;;;;;;5133031;27;20453;-85
2020/12/23 06:52:01;;;;;;;1.00;0.93;;;12.30;99.90;;;;;;5133895;27;20425;-85
2020/12/23 06:55:06;;;;;;;1.23;1.23;;;12.30;99.90;;;;;;5135965;27;20463;-86
2020/12/23 06:57:34;;;;;;;1.30;1.30;;;12.30;99.90;;;;;;5052439;28;20410;-86
2020/12/23 07:00:03;;;;;;;2.17;1.17;;;12.40;99.90;;;;;;5121868;27;20426;-84
2020/12/23 07:02:32;;;;;;;1.10;1.00;;;12.40;99.90;;;;;;5135740;27;20394;-86
2020/12/23 07:04:59;;;;;;;2.07;1.50;;;12.40;99.90;;;;;;5118844;27;20942;-84
2020/12/23 07:07:46;;;;;;;1.00;1.00;;;12.30;99.90;;;;;;5118422;28;20952;-84
2020/12/23 07:10:17;;;;;;;0.80;0.80;;;12.40;99.90;;;;;;5114504;28;20423;-84
2020/12/23 07:12:46;;;;;;;0.87;0.87;;;12.40;99.90;;;;;;5116841;28;20493;-84
2020/12/23 07:15:22;;;;;;;5.17;1.40;;;12.50;99.90;;;;;;5115577;28;20463;-82
2020/12/23 07:17:50;;;;;;;2.10;2.00;;;12.40;99.90;;;;;;5097596;28;20437;-84
2020/12/23 07:20:18;;;;;;;2.90;1.40;;;12.40;99.90;;;;;;5114395;28;20416;-86
2020/12/23 07:22:47;;;;;;;0.90;0.90;;;12.50;99.90;;;;;;5113331;28;20420;-86
2020/12/23 07:25:24;;;;;;;1.07;1.07;;;12.40;99.90;;;;;;5115416;28;20503;-86
2020/12/23 07:27:55;;;;;;;1.00;1.00;;;12.40;99.90;;;;;;5114028;28;20408;-85
2020/12/23 07:30:22;;;;;;;0.70;0.70;;;12.40;99.90;;;;;;5114536;28;20406;-82
2020/12/23 07:33:09;;;;;;;2.10;2.00;;;12.40;99.90;;;;;;5112700;28;20879;-86
2020/12/23 07:35:36;;;;;;;4.97;2.23;;;12.50;99.90;;;;;;5112538;28;20485;-85
2020/12/23 07:38:04;;;;;;;3.30;2.40;;;12.50;99.90;;;;;;5112733;28;20415;-86
2020/12/23 07:40:30;;;;;;;1.03;1.00;;;12.40;99.90;;;;;;5112858;28;20463;-85
2020/12/23 07:42:57;;;;;;;2.97;1.67;;;12.40;99.90;;;;;;5112960;28;20412;-89
2020/12/23 07:45:24;;;;;;;2.07;1.13;;;12.50;99.90;;;;;;5113002;28;20419;-87
2020/12/23 07:47:53;;;;;;;1.37;1.20;;;12.50;99.90;;;;;;5113078;28;20532;-84
2020/12/23 07:50:18;;;;;;;1.03;0.80;;;12.50;99.90;;;;;;5112754;28;20419;-85
2020/12/23 07:52:44;;;;;;;0.80;0.80;;;12.40;99.90;;;;;;5114051;28;20420;-85
2020/12/23 07:55:17;;;;;;;1.03;0.93;;;12.50;99.90;;;;;;5115575;28;20216;-84
2020/12/23 07:57:43;;;;;;;1.67;1.10;;;12.50;99.90;;;;;;5114632;27;20205;-85
2020/12/23 08:00:10;;;;;;;0.90;0.90;;;12.60;99.90;;;;;;5112337;28;20520;-86
2020/12/23 08:02:36;;;;;;;1.33;1.30;;;12.50;99.90;;;;;;5111572;28;20173;-85
2020/12/23 08:05:04;;;;;;;1.50;0.63;;;12.60;99.90;;;;;;5112583;28;20464;-85
2020/12/23 08:07:30;;;;;;;0.80;0.60;;;12.50;99.90;;;;;;5111908;28;20420;-85
2020/12/23 08:09:55;;;;;;;2.57;1.10;;;12.60;99.90;;;;;;5112671;28;20434;-86
2020/12/23 08:12:21;;;;;;;0.93;0.77;;;12.60;99.90;;;;;;5113473;28;20218;-87
2020/12/23 08:14:48;;;;;;;1.87;1.00;;;12.60;99.90;;;;;;5115333;28;20569;-87
2020/12/23 08:17:23;;;;;;;0.77;0.77;;;12.70;99.90;;;;;;5113194;28;20177;-85
2020/12/23 08:20:21;;;;;;;1.07;0.97;;;12.70;99.90;;;;;;5114165;28;20399;-86
2020/12/23 08:22:46;;;;;;;2.40;0.90;;;12.70;99.90;;;;;;5089443;28;20510;-84
2020/12/23 08:25:15;;;;;;;0.90;0.90;;;12.70;99.90;;;;;;5111526;28;20565;-87
2020/12/23 08:27:43;;;;;;;0.90;0.90;;;12.60;99.90;;;;;;5112970;28;20189;-83
2020/12/23 08:30:11;;;;;;;2.00;1.90;;;12.60;99.90;;;;;;5113201;28;20914;-85
2020/12/23 08:33:02;;;;;;;3.20;3.00;;;12.60;99.90;;;;;;5112997;28;20499;-84
2020/12/23 08:35:40;;;;;;;4.07;3.77;;;12.60;99.90;;;;;;5115950;28;20476;-85
2020/12/23 08:38:16;;;;;;;1.50;1.40;;;12.60;99.90;;;;;;5113052;28;20411;-86
2020/12/23 08:40:49;;;;;;;3.70;3.40;;;12.70;99.90;;;;;;5133325;27;20878;-86
2020/12/23 08:43:28;;;;;;;2.83;2.73;;;12.70;99.90;;;;;;5133267;27;20410;-83
2020/12/23 08:45:55;;;;;;;6.33;5.97;;;12.70;99.90;;;;;;5133836;27;20422;-86
2020/12/23 08:48:21;;;;;;;3.37;3.17;;;12.80;99.90;;;;;;5133331;27;20464;-85
2020/12/23 08:50:58;;;;;;;3.20;3.00;;;12.80;99.90;;;;;;5131706;27;20418;-84
2020/12/23 08:53:35;;;;;;;1.73;1.63;;;12.80;99.90;;;;;;5133269;27;20399;-86
2020/12/23 08:56:01;;;;;;;1.90;1.80;;;12.80;99.90;;;;;;5133494;27;20563;-87
2020/12/23 08:58:28;;;;;;;1.57;1.47;;;12.80;99.90;;;;;;5134212;27;20446;-85
2020/12/23 09:01:00;;;;;;;1.93;1.83;;;12.80;99.90;;;;;;5132298;28;20426;-85
2020/12/23 09:03:27;;;;;;;1.40;1.40;;;12.80;99.90;;;;;;5128419;27;20460;-82
2020/12/23 09:05:56;;;;;;;1.37;1.30;;;12.70;99.90;;;;;;5099994;28;20428;-86
2020/12/23 09:08:24;;;;;;;1.60;1.50;;;12.80;99.90;;;;;;5111349;28;20424;-86
2020/12/23 09:10:59;;;;;;;1.30;1.30;;;12.80;99.90;;;;;;5112121;28;20415;-83
2020/12/23 09:13:32;;;;;;;1.50;1.40;;;12.80;99.90;;;;;;5109500;28;20475;-85
2020/12/23 09:15:58;;;;;;;1.67;1.57;;;12.70;99.90;;;;;;5110024;28;20580;-85
2020/12/23 09:18:24;;;;;;;1.80;1.70;;;12.80;99.90;;;;;;5111526;28;20502;-84
2020/12/23 09:21:00;;;;;;;2.83;2.17;;;12.80;99.90;;;;;;5114820;28;20431;-83
2020/12/23 09:23:26;;;;;;;4.67;3.97;;;12.80;99.90;;;;;;5131479;22;20474;-79
2020/12/23 09:25:53;;;;;;;2.60;2.40;;;12.90;99.90;;;;;;5032979;28;20447;-84
2020/12/23 09:28:19;;;;;;;3.23;2.93;;;12.90;99.90;;;;;;5054033;28;20462;-82
2020/12/23 09:30:47;;;;;;;2.23;2.13;;;13.00;99.90;;;;;;5037731;28;20430;-84
2020/12/23 09:33:19;;;;;;;2.73;2.53;;;12.90;99.90;;;;;;5037770;28;20813;-85
2020/12/23 09:35:47;;;;;;;1.50;1.50;;;12.90;99.90;;;;;;5040747;28;20519;-80
2020/12/23 09:38:24;;;;;;;1.57;1.47;;;12.90;99.90;;;;;;5055812;28;20897;-83
2020/12/23 09:40:57;;;;;;;2.30;1.57;;;12.90;99.90;;;;;;5037698;28;20436;-80
2020/12/23 09:43:31;;;;;;;1.50;1.23;;;13.00;99.90;;;;;;5036819;28;20491;-83
2020/12/23 09:46:04;;;;;;;2.10;1.10;;;13.20;99.90;;;;;;5037492;28;20514;-83
2020/12/23 09:48:30;;;;;;;1.60;1.50;;;13.20;99.90;;;;;;5055037;28;20418;-83
2020/12/23 09:50:56;;;;;;;1.53;1.43;;;13.30;99.90;;;;;;5037071;28;20765;-82
2020/12/23 09:53:22;;;;;;;1.63;1.40;;;13.30;99.90;;;;;;5037191;28;20184;-82
2020/12/23 09:55:48;;;;;;;1.60;1.50;;;13.30;99.90;;;;;;5036648;28;20509;-85
2020/12/23 09:58:15;;;;;;;0.90;0.90;;;13.40;99.90;;;;;;5036839;28;20438;-83
2020/12/23 10:00:42;;;;;;;1.70;1.60;;;13.40;99.90;;;;;;5037282;28;20583;-83
2020/12/23 10:03:12;;;;;;;1.03;1.03;;;13.40;99.90;;;;;;5054210;28;20483;-81
2020/12/23 10:05:38;;;;;;;1.57;1.47;;;13.40;99.90;;;;;;5035927;28;20878;-82
2020/12/23 10:08:04;;;;;;;2.07;1.23;;;13.40;99.90;;;;;;5035654;28;20465;-82
2020/12/23 10:10:29;;;;;;;1.37;1.27;;;13.40;99.90;;;;;;5036264;28;20168;-81
2020/12/23 10:12:55;;;;;;;1.83;1.07;;;13.40;99.90;;;;;;5054793;28;20905;-81
2020/12/23 10:15:21;;;;;;;1.00;1.00;;;13.40;99.90;;;;;;5036661;28;20212;-83
2020/12/23 10:17:46;;;;;;;0.90;0.90;;;13.40;99.90;;;;;;5037064;28;20168;-83
2020/12/23 10:20:12;;;;;;;0.90;0.90;;;13.40;99.90;;;;;;5036635;28;20213;-82
2020/12/23 10:22:39;;;;;;;1.20;1.10;;;13.40;99.90;;;;;;5036562;28;20270;-81
2020/12/23 10:25:05;;;;;;;1.23;1.17;;;13.50;99.90;;;;;;5054248;28;21004;-82
2020/12/23 10:27:31;;;;;;;1.30;1.10;;;13.50;99.90;;;;;;5054783;28;20407;-85
2020/12/23 10:29:56;;;;;;;1.33;1.10;;;13.50;99.90;;;;;;5037804;28;20441;-83
2020/12/23 10:32:22;;;;;;;1.13;1.10;;;13.50;99.90;;;;;;5036434;28;20182;-82
2020/12/23 10:34:48;;;;;;;1.27;1.17;;;13.50;99.90;;;;;;5036969;28;20207;-84
2020/12/23 10:37:19;;;;;;;1.43;1.33;;;13.60;99.90;;;;;;5037501;28;20186;-83
2020/12/23 10:39:45;;;;;;;1.60;1.50;;;13.60;99.90;;;;;;5035355;28;20191;-83
2020/12/23 10:42:11;;;;;;;1.50;1.40;;;13.60;99.90;;;;;;5036173;28;20480;-83
2020/12/23 10:44:36;;;;;;;2.10;1.37;;;13.70;99.90;;;;;;5054340;28;20407;-84
2020/12/23 10:47:02;;;;;;;3.60;1.27;;;13.60;99.90;;;;;;5035732;28;20266;-81
2020/12/23 10:49:28;;;;;;;1.50;1.40;;;13.50;99.90;;;;;;5035739;28;20176;-82
2020/12/23 10:51:56;;;;;;;1.63;1.53;;;13.60;99.90;;;;;;5035668;28;20445;-83
2020/12/23 10:54:23;;;;;;;3.40;2.00;;;13.60;99.90;;;;;;5054360;28;20302;-82
2020/12/23 10:56:49;;;;;;;2.77;2.57;;;13.70;99.90;;;;;;5036079;28;20422;-83
2020/12/23 10:59:14;;;;;;;2.50;2.30;;;13.70;99.90;;;;;;5035632;28;20487;-82
2020/12/23 11:01:40;;;;;;;2.20;1.80;;;13.60;99.90;;;;;;5035798;28;20183;-83
2020/12/23 11:04:06;;;;;;;2.73;2.53;;;13.60;99.90;;;;;;5036418;28;20519;-83
2020/12/23 11:06:32;;;;;;;1.83;1.50;;;13.60;99.90;;;;;;5035692;28;20218;-83
2020/12/23 11:08:58;;;;;;;1.20;1.10;;;13.60;99.90;;;;;;5035820;28;20422;-85
2020/12/23 11:11:24;;;;;;;1.40;1.30;;;13.60;99.90;;;;;;5035537;28;20184;-83
2020/12/23 11:13:50;;;;;;;4.13;1.73;;;13.50;99.90;;;;;;5052638;28;20180;-83
2020/12/23 11:16:16;;;;;;;2.30;2.20;;;13.40;99.90;;;;;;5035854;28;20793;-85
2020/12/23 11:18:43;;;;;;;2.03;1.93;;;13.50;99.90;;;;;;5035337;28;20215;-83
2020/12/23 11:21:09;;;;;;;1.57;1.47;;;13.50;99.90;;;;;;5035628;28;20500;-84
2020/12/23 11:23:35;;;;;;;1.23;1.10;;;13.50;99.90;;;;;;5053394;28;20422;-81
2020/12/23 11:26:01;;;;;;;1.20;1.10;;;13.60;99.90;;;;;;5035533;28;20415;-83
2020/12/23 11:28:29;;;;;;;1.17;1.10;;;13.50;99.90;;;;;;5035192;28;20955;-84
2020/12/23 11:30:59;;;;;;;1.83;1.73;;;13.50;99.90;;;;;;5035264;28;20426;-84
2020/12/23 11:33:25;;;;;;;1.67;1.30;;;13.50;99.90;;;;;;5035440;28;20434;-82
2020/12/23 11:35:51;;;;;;;1.67;1.57;;;13.40;99.90;;;;;;5035478;28;20505;-84
2020/12/23 11:38:16;;;;;;;1.83;1.73;;;13.50;99.90;;;;;;5035108;28;20461;-83
2020/12/23 11:40:42;;;;;;;2.93;2.60;;;13.60;99.90;;;;;;5034927;28;20207;-83
2020/12/23 11:43:07;;;;;;;2.63;2.43;;;13.50;99.90;;;;;;5035432;28;20675;-84
2020/12/23 11:45:33;;;;;;;1.23;1.13;;;13.50;99.90;;;;;;5036284;28;20183;-84
2020/12/23 11:47:58;;;;;;;3.20;2.90;;;13.60;99.90;;;;;;5053968;28;20619;-83
2020/12/23 11:50:24;;;;;;;1.70;1.60;;;13.60;99.90;;;;;;5035678;28;20267;-84
2020/12/23 11:52:49;;;;;;;1.70;1.60;;;13.60;99.90;;;;;;5035002;28;20248;-83
2020/12/23 11:55:18;;;;;;;2.27;2.07;;;13.60;99.90;;;;;;5035639;28;20212;-84
2020/12/23 11:57:44;;;;;;;1.67;1.57;;;13.60;99.90;;;;;;5036055;28;20183;-82
2020/12/23 12:00:09;;;;;;;1.30;1.20;;;13.70;99.90;;;;;;5035759;28;20782;-78
2020/12/23 12:02:35;;;;;;;15.37;13.73;;;13.60;99.90;;;;;;5035666;28;20407;-83
2020/12/23 12:05:01;;;;;;;2.00;1.90;;;13.60;99.90;;;;;;5035881;28;20175;-82
2020/12/23 12:07:26;;;;;;;13.30;12.10;;;13.60;99.90;;;;;;5035539;28;20750;-83
2020/12/23 12:09:52;;;;;;;2.90;2.70;;;13.60;99.90;;;;;;5035596;28;20176;-82
2020/12/23 12:12:17;;;;;;;2.23;2.03;;;13.70;99.90;;;;;;5035589;28;20462;-80
2020/12/23 12:14:43;;;;;;;1.90;1.80;;;13.70;99.90;;;;;;5035293;28;20235;-84
2020/12/23 12:17:09;;;;;;;1.37;1.27;;;13.60;99.90;;;;;;5035122;28;20199;-83
2020/12/23 12:19:34;;;;;;;1.30;1.20;;;13.70;99.90;;;;;;5035635;28;20245;-85
2020/12/23 12:22:00;;;;;;;1.27;1.17;;;13.60;99.90;;;;;;5052915;28;20250;-84
2020/12/23 12:24:25;;;;;;;2.17;2.00;;;13.60;99.90;;;;;;5034949;28;20285;-80
2020/12/23 12:26:51;;;;;;;3.73;1.63;;;13.60;99.90;;;;;;5035601;28;20265;-83
2020/12/23 12:29:16;;;;;;;1.67;1.23;;;13.70;99.90;;;;;;5035481;28;20584;-81
2020/12/23 12:31:42;;;;;;;0.83;0.83;;;13.60;99.90;;;;;;5035621;28;20176;-84
2020/12/23 12:34:08;;;;;;;2.00;1.63;;;13.60;99.90;;;;;;5035822;28;20206;-85
2020/12/23 12:36:33;;;;;;;1.90;1.80;;;13.60;99.90;;;;;;5035599;28;20427;-83
2020/12/23 12:39:00;;;;;;;4.60;1.90;;;13.60;99.90;;;;;;5037419;28;20603;-83
2020/12/23 12:41:27;;;;;;;1.67;1.57;;;13.50;99.90;;;;;;5035306;28;20183;-80
2020/12/23 12:43:54;;;;;;;1.33;1.23;;;13.50;99.90;;;;;;5028202;28;20454;-85
2020/12/23 12:46:22;;;;;;;1.20;1.13;;;13.50;99.90;;;;;;5031507;28;20418;-84